Aérodrome :
LOGIN :

S'inscrire | Disclaimer

   EN    FR    IT 

 










Légende :    VFR   VFR Marginal   IFR   IFR Intensif   IFR Très Intensif
Visi : 
Plafond : 
>= 8 km
>= 3000ft
5 à 8 km
1000 à 3000 ft
1500m à 5 km
500 à 1000 ft
800 à 1500m
200 à 500 ft
< 800m
< 200 ft
Symboles :   Orages  Brouillard  Fortes neiges  Fortes précipitations  Vent > 20 kt
SIGMETs :   Divers  Orages  Givrage  Turbulence  Onde Orograph.  Cendres Volcan.






- Altitude de l'aérodrome : 49 ft
- Code IATA : SEN


EGMC - Southend

DERNIER METAR :
  • 181150Z 21007KT 150V280 9999 FEW045 21/08 Q1021

METARs EXPIRÉS :
  • 181120Z 20006KT 110V240 CAVOK 21/07 Q1021
  • 181050Z 20006KT 140V240 CAVOK 20/09 Q1021
  • 181020Z 22007KT 170V250 CAVOK 19/06 Q1021
  • 180950Z 21006KT 150V260 CAVOK 19/07 Q1021
  • 180920Z 25005KT 200V300 CAVOK 18/09 Q1021
  • 180850Z VRB04KT CAVOK 18/08 Q1021

TAF TAF EGMC
Valide du 18 à 12h jusqu'au 18 à 21h UTC


181103Z 1812/1821 20009KT CAVOK
BECMG 1812/1815 12011KT
PROB30
TEMPO 1819/1821 6000 SHRA



MET'MAP, la Météo Aéronautique d'un coup d'oeil ! - Copyright ORBIFLY Décembre 2007 - Disclaimer

ORBIFLY MET'MAP TEAM :

Programmation & Développement : Alexandra Zaïnal
Sur une idée originale de : Baudouin d'Aumeries
Soutien technique & logistique : Manuel Goepfert
Assistance : Marc-Olivier Méhu

Contact : metmap@orbifly.com




SOURCES & CREDITS :

   NOAA